Time;durP1;ratioP1;P1;durP2;ratioP2;P2;SDS_P1;SDS_P2;PMS_P1;PMS_P2;Temp;Humidity;BMP_temperature;BMP_pressure;BME280_temperature;BME280_humidity;BME280_pressure;Samples;Min_cycle;Max_cycle;Signal;HPM_P1;HPM_P2
2022/09/14 00:01:27;;;;;;;5.65;1.13;;;16.80;99.90;;;;;;4852441;29;39912;-78
2022/09/14 00:03:58;;;;;;;6.05;1.20;;;16.80;99.90;;;;;;4849059;29;37732;-78
2022/09/14 00:06:25;;;;;;;5.10;1.03;;;16.80;99.90;;;;;;4832841;29;36862;-78
2022/09/14 00:08:53;;;;;;;6.55;0.82;;;16.80;99.90;;;;;;4833521;29;36367;-77
2022/09/14 00:11:21;;;;;;;2.53;0.80;;;16.80;99.90;;;;;;4835118;29;38478;-78
2022/09/14 00:13:48;;;;;;;5.90;0.75;;;16.80;99.90;;;;;;4850880;29;39488;-77
2022/09/14 00:16:23;;;;;;;3.17;1.00;;;16.80;99.90;;;;;;4834702;29;38342;-77
2022/09/14 00:18:55;;;;;;;5.60;0.95;;;16.90;99.90;;;;;;4854878;29;37575;-77
2022/09/14 00:21:22;;;;;;;2.80;0.90;;;16.90;99.90;;;;;;4852383;29;37617;-77
2022/09/14 00:23:48;;;;;;;2.33;0.77;;;16.90;99.90;;;;;;4850191;29;38424;-78
2022/09/14 00:26:16;;;;;;;4.60;1.08;;;16.90;99.90;;;;;;4851535;29;38260;-78
2022/09/14 00:28:45;;;;;;;6.00;0.98;;;16.90;99.90;;;;;;4841606;29;37349;-78
2022/09/14 00:31:12;;;;;;;5.15;0.82;;;16.80;99.90;;;;;;4848639;29;38612;-77
2022/09/14 00:33:41;;;;;;;4.47;0.80;;;16.80;99.90;;;;;;4834136;29;37429;-78
2022/09/14 00:36:09;;;;;;;3.30;0.98;;;16.70;99.90;;;;;;4845454;29;38269;-77
2022/09/14 00:38:35;;;;;;;4.90;1.00;;;16.70;99.90;;;;;;4828120;29;36203;-77
2022/09/14 00:41:02;;;;;;;5.43;1.05;;;16.70;99.90;;;;;;4834328;29;37347;-78
2022/09/14 00:43:28;;;;;;;3.03;0.95;;;16.70;99.90;;;;;;4854795;29;49472;-76
2022/09/14 00:45:54;;;;;;;4.63;0.93;;;16.80;99.90;;;;;;4839299;29;39003;-78
2022/09/14 00:48:24;;;;;;;5.80;0.90;;;16.70;99.90;;;;;;4848790;29;38465;-78
2022/09/14 00:50:52;;;;;;;4.10;1.10;;;16.70;99.90;;;;;;4838331;29;37914;-75
2022/09/14 00:53:18;;;;;;;3.08;0.73;;;16.70;99.90;;;;;;4832830;29;37278;-77
2022/09/14 00:55:45;;;;;;;3.58;0.80;;;16.70;99.90;;;;;;4847524;29;38487;-77
2022/09/14 00:58:11;;;;;;;5.50;0.85;;;16.70;99.90;;;;;;4845971;29;36948;-78
2022/09/14 01:03:13;;;;;;;2.70;0.90;;;16.70;99.90;;;;;;5106606;23;20235;-85
2022/09/14 01:06:17;;;;;;;4.38;1.02;;;16.70;99.90;;;;;;4897225;29;37693;-86
2022/09/14 01:08:57;;;;;;;6.00;1.00;;;16.70;99.90;;;;;;4888902;29;47342;-87
2022/09/14 01:11:41;;;;;;;4.30;1.02;;;16.80;99.90;;;;;;4907576;29;37322;-87
2022/09/14 01:14:20;;;;;;;3.92;0.90;;;16.70;99.90;;;;;;4886723;29;37423;-86
2022/09/14 01:16:57;;;;;;;5.15;1.10;;;16.80;99.90;;;;;;4882598;29;37035;-88
2022/09/14 01:19:41;;;;;;;4.32;0.77;;;16.70;99.90;;;;;;4911906;29;37395;-87
2022/09/14 01:22:17;;;;;;;7.30;1.20;;;16.80;99.90;;;;;;4911440;29;38816;-86
2022/09/14 01:24:48;;;;;;;4.10;1.10;;;16.80;99.90;;;;;;4891829;29;36749;-88
2022/09/14 01:27:21;;;;;;;7.68;1.38;;;16.70;99.90;;;;;;4887650;29;36740;-88
2022/09/14 01:30:08;;;;;;;3.92;1.20;;;16.70;99.90;;;;;;4904003;29;37359;-87
2022/09/14 01:32:49;;;;;;;8.07;1.27;;;16.70;99.90;;;;;;4887031;29;37721;-88
2022/09/14 01:35:29;;;;;;;5.30;0.88;;;16.70;99.90;;;;;;4884342;29;38703;-87
2022/09/14 01:38:09;;;;;;;4.10;0.73;;;16.70;99.90;;;;;;4889667;29;37908;-89
2022/09/14 01:40:43;;;;;;;3.35;1.00;;;16.80;99.90;;;;;;4889606;29;46988;-87
2022/09/14 01:43:28;;;;;;;3.58;1.00;;;16.80;99.90;;;;;;4885428;29;36162;-87
2022/09/14 01:46:25;;;;;;;5.20;1.17;;;16.70;99.90;;;;;;4892861;29;37376;-86
2022/09/14 01:49:12;;;;;;;3.67;0.90;;;16.70;99.90;;;;;;4878167;29;47108;-86
2022/09/14 01:51:46;;;;;;;7.07;1.00;;;16.70;99.90;;;;;;4883776;29;47105;-87
2022/09/14 01:54:24;;;;;;;5.97;1.00;;;16.70;99.90;;;;;;4886800;29;37608;-87
2022/09/14 01:57:14;;;;;;;4.20;1.20;;;16.70;99.90;;;;;;4894935;29;37657;-87
2022/09/14 01:59:45;;;;;;;5.43;1.08;;;16.70;99.90;;;;;;4890551;29;47372;-88
2022/09/14 02:02:24;;;;;;;9.80;1.17;;;16.70;99.90;;;;;;4893319;29;36054;-87
2022/09/14 02:07:38;;;;;;;7.38;1.50;;;16.70;99.90;;;;;;4914289;29;20033;-81
2022/09/14 02:10:10;;;;;;;6.90;1.48;;;16.70;99.90;;;;;;4917765;29;38635;-79
2022/09/14 02:12:38;;;;;;;5.88;0.88;;;16.60;99.90;;;;;;4898745;29;36595;-79
2022/09/14 02:15:06;;;;;;;8.63;1.85;;;16.60;99.90;;;;;;4910819;29;37715;-80
2022/09/14 02:17:32;;;;;;;6.97;1.17;;;16.60;99.90;;;;;;4907536;29;38299;-80
2022/09/14 02:20:01;;;;;;;7.07;1.15;;;16.60;99.90;;;;;;4889289;29;36715;-80
2022/09/14 02:22:29;;;;;;;9.35;2.13;;;16.60;99.90;;;;;;4900042;29;49099;-80
2022/09/14 02:24:56;;;;;;;5.85;1.20;;;16.60;99.90;;;;;;4904611;29;39301;-79
2022/09/14 02:27:23;;;;;;;7.63;0.93;;;16.60;99.90;;;;;;4907892;29;38845;-80
2022/09/14 02:29:51;;;;;;;6.55;1.17;;;16.60;99.90;;;;;;4889412;29;36753;-81
2022/09/14 02:32:27;;;;;;;4.80;1.40;;;16.60;99.90;;;;;;4883798;29;36857;-80
2022/09/14 02:35:06;;;;;;;8.00;1.27;;;16.60;99.90;;;;;;4903372;29;40805;-81
2022/09/14 02:38:00;;;;;;;5.93;1.00;;;16.60;99.90;;;;;;4906231;29;49225;-80
2022/09/14 02:40:47;;;;;;;6.95;1.40;;;16.60;99.90;;;;;;4909961;29;47359;-80
2022/09/14 02:43:26;;;;;;;4.25;0.90;;;16.60;99.90;;;;;;4912731;29;37978;-81
2022/09/14 02:45:56;;;;;;;5.30;0.80;;;16.50;99.90;;;;;;4889877;29;38090;-81
2022/09/14 02:48:31;;;;;;;5.00;1.08;;;16.50;99.90;;;;;;4880687;29;38695;-81
2022/09/14 02:51:29;;;;;;;5.22;1.20;;;16.50;99.90;;;;;;4881289;29;36719;-79
2022/09/14 02:53:58;;;;;;;11.10;1.80;;;16.40;99.90;;;;;;4909863;29;48302;-80
2022/09/14 02:56:25;;;;;;;4.80;0.82;;;16.40;99.90;;;;;;4906130;29;39675;-80
2022/09/14 02:58:51;;;;;;;4.60;0.98;;;16.30;99.90;;;;;;4908240;29;39028;-81
2022/09/14 03:01:20;;;;;;;6.82;1.17;;;16.30;99.90;;;;;;4910668;29;37510;-80
2022/09/14 03:03:46;;;;;;;4.78;1.10;;;16.30;99.90;;;;;;4911598;29;36160;-80
2022/09/14 03:06:13;;;;;;;4.85;1.02;;;16.20;99.90;;;;;;4901229;29;38852;-80
2022/09/14 03:08:42;;;;;;;5.80;1.00;;;16.20;99.90;;;;;;4904319;29;37351;-81
2022/09/14 03:11:14;;;;;;;6.07;0.90;;;16.20;99.90;;;;;;4891988;29;36790;-81
2022/09/14 03:13:45;;;;;;;5.93;1.00;;;16.20;99.90;;;;;;4897166;29;37246;-81
2022/09/14 03:16:13;;;;;;;6.00;0.90;;;16.20;99.90;;;;;;4909634;29;40282;-81
2022/09/14 03:18:40;;;;;;;5.65;1.00;;;16.20;99.90;;;;;;4904879;29;38221;-81
2022/09/14 03:21:19;;;;;;;2.83;0.60;;;16.10;99.90;;;;;;4914117;29;36805;-81
2022/09/14 03:23:54;;;;;;;5.55;0.93;;;16.20;99.90;;;;;;4893357;29;37253;-81
2022/09/14 03:26:25;;;;;;;3.80;0.95;;;16.20;99.90;;;;;;4911451;29;39654;-81
2022/09/14 03:28:52;;;;;;;5.63;0.80;;;16.10;99.90;;;;;;4888246;29;38497;-81
2022/09/14 03:31:19;;;;;;;4.30;1.10;;;16.10;99.90;;;;;;4907357;29;38641;-81
2022/09/14 03:33:45;;;;;;;2.72;0.70;;;16.10;99.90;;;;;;4899626;29;36178;-80
2022/09/14 03:36:17;;;;;;;6.45;0.90;;;16.10;99.90;;;;;;4903006;29;38677;-81
2022/09/14 03:38:51;;;;;;;;;;;16.10;99.90;;;;;;4894721;29;38152;-81
2022/09/14 03:41:19;;;;;;;3.60;0.70;;;16.10;99.90;;;;;;4912208;29;38981;-81
2022/09/14 03:43:45;;;;;;;4.13;1.40;;;16.10;99.90;;;;;;4917341;29;37027;-81
2022/09/14 03:46:14;;;;;;;6.03;1.27;;;16.20;99.90;;;;;;4916241;29;38521;-80
2022/09/14 03:48:41;;;;;;;5.13;0.90;;;16.20;99.90;;;;;;4911587;29;38602;-81
2022/09/14 03:51:09;;;;;;;5.93;1.25;;;16.20;99.90;;;;;;4887704;29;37361;-80
2022/09/14 03:53:35;;;;;;;6.72;1.30;;;16.10;99.90;;;;;;4919034;29;38427;-80
2022/09/14 03:56:14;;;;;;;6.97;1.20;;;16.10;99.90;;;;;;4907521;29;40170;-80
2022/09/14 03:58:41;;;;;;;7.07;1.30;;;16.00;99.90;;;;;;4896220;29;37894;-80
2022/09/14 04:01:10;;;;;;;9.35;1.60;;;16.00;99.90;;;;;;4903811;29;38540;-80
2022/09/14 04:03:37;;;;;;;5.80;1.92;;;16.10;99.90;;;;;;4911838;29;36130;-80
2022/09/14 04:06:04;;;;;;;6.68;1.30;;;16.00;99.90;;;;;;4901975;29;37501;-82
2022/09/14 04:08:47;;;;;;;5.75;1.20;;;15.90;99.90;;;;;;4888677;29;37586;-81
2022/09/14 04:11:24;;;;;;;4.35;0.93;;;15.90;99.90;;;;;;4906173;29;38022;-81
2022/09/14 04:14:07;;;;;;;7.13;1.50;;;15.90;99.90;;;;;;4893378;29;37455;-80
2022/09/14 04:16:36;;;;;;;12.60;1.90;;;15.90;99.90;;;;;;5284178;23;44275;-80
2022/09/14 04:19:03;;;;;;;5.22;1.13;;;15.90;99.90;;;;;;4915428;29;37498;-80
2022/09/14 04:21:30;;;;;;;2.35;0.70;;;15.90;99.90;;;;;;5280835;23;40239;-80
2022/09/14 04:24:00;;;;;;;2.58;0.90;;;15.90;99.90;;;;;;4899184;29;36767;-80
2022/09/14 04:29:18;;;;;;;5.95;1.15;;;15.90;99.90;;;;;;4932835;29;20047;-80
2022/09/14 04:31:44;;;;;;;4.43;0.82;;;15.90;99.90;;;;;;5434529;23;37935;-80
2022/09/14 04:34:26;;;;;;;4.13;1.13;;;15.90;99.90;;;;;;4901058;29;37105;-80
2022/09/14 04:37:05;;;;;;;3.13;0.82;;;15.80;99.90;;;;;;4909764;29;40313;-80
2022/09/14 04:39:35;;;;;;;5.65;1.17;;;15.80;99.90;;;;;;4917965;29;50296;-79
2022/09/14 04:42:06;;;;;;;5.97;1.00;;;15.80;99.90;;;;;;4922351;28;38175;-81
2022/09/14 04:47:14;;;;;;;2.53;1.00;;;15.80;99.90;;;;;;5129448;23;20022;-80
2022/09/14 04:49:40;;;;;;;5.20;1.30;;;15.80;99.90;;;;;;4885328;29;37465;-79
2022/09/14 04:52:08;;;;;;;5.40;1.63;;;15.90;99.90;;;;;;4898302;29;38146;-80
2022/09/14 04:57:08;;;;;;;4.63;1.23;;;15.90;99.90;;;;;;4914648;29;20049;-80
2022/09/14 05:02:22;;;;;;;3.88;1.30;;;15.80;99.90;;;;;;4937704;23;20088;-80
2022/09/14 05:08:17;;;;;;;5.80;1.85;;;15.80;99.90;;;;;;4928310;23;20099;-83
2022/09/14 05:16:37;;;;;;;5.40;1.63;;;15.60;99.90;;;;;;5620427;23;20049;-80
2022/09/14 05:19:06;;;;;;;3.35;1.00;;;15.50;99.90;;;;;;5596444;23;38650;-81
2022/09/14 05:41:48;;;;;;;9.25;1.75;;;15.30;99.90;;;;;;5717020;23;19918;-81
2022/09/14 05:44:39;;;;;;;5.50;2.22;;;15.30;99.90;;;;;;4882150;29;38940;-81
2022/09/14 05:47:23;;;;;;;7.03;1.70;;;15.30;99.90;;;;;;4880033;29;37722;-81
2022/09/14 06:25:31;;;;;;;5.78;1.70;;;14.90;99.90;;;;;;5881642;23;20020;-81
2022/09/14 06:28:16;;;;;;;3.08;1.58;;;14.90;99.90;;;;;;4900214;29;36201;-81
2022/09/14 06:31:06;;;;;;;7.10;1.80;;;14.90;99.90;;;;;;4900440;29;50104;-80
2022/09/14 06:33:53;;;;;;;5.20;2.00;;;15.00;99.90;;;;;;4859248;29;50343;-80
2022/09/14 06:36:25;;;;;;;4.95;1.70;;;14.90;99.90;;;;;;5407925;23;39523;-80
2022/09/14 06:39:06;;;;;;;12.88;2.78;;;15.00;99.90;;;;;;4910560;29;37041;-80
2022/09/14 06:41:35;;;;;;;8.02;2.67;;;14.90;99.90;;;;;;4903532;29;46296;-80
2022/09/14 06:54:27;;;;;;;7.32;1.75;;;14.90;99.90;;;;;;5782128;23;20044;-81
2022/09/14 06:56:58;;;;;;;6.13;2.05;;;14.90;99.90;;;;;;4916261;28;38956;-81
2022/09/14 08:09:04;;;;;;;6.00;1.77;;;14.90;99.90;;;;;;4851569;29;50641;-81
2022/09/14 08:11:39;;;;;;;6.50;1.77;;;14.90;99.90;;;;;;4862933;29;38890;-81
2022/09/14 08:14:29;;;;;;;5.22;1.95;;;14.90;99.90;;;;;;4911919;29;38697;-82
2022/09/14 08:17:50;;;;;;;5.32;1.98;;;14.90;99.90;;;;;;4908289;28;39361;-81
2022/09/14 08:20:26;;;;;;;3.47;1.77;;;15.00;99.90;;;;;;5487169;23;37381;-81
2022/09/14 08:26:24;;;;;;;4.00;1.67;;;14.80;99.90;;;;;;4905631;28;50652;-80
2022/09/14 08:29:07;;;;;;;5.32;1.58;;;15.00;99.90;;;;;;4909213;28;38091;-80
2022/09/14 08:32:04;;;;;;;6.50;1.58;;;15.10;99.90;;;;;;4908878;28;48495;-80
2022/09/14 08:34:39;;;;;;;12.07;2.22;;;15.20;99.90;;;;;;4893678;29;50184;-81
2022/09/14 08:37:18;;;;;;;9.77;1.90;;;15.30;99.90;;;;;;4884480;29;38895;-81
2022/09/14 08:40:16;;;;;;;5.93;1.70;;;15.30;99.90;;;;;;4891429;29;37463;-80
2022/09/14 08:42:48;;;;;;;6.97;1.70;;;15.30;99.90;;;;;;4917593;28;49460;-80
2022/09/14 08:48:29;;;;;;;8.23;1.83;;;15.20;99.90;;;;;;5370978;23;20140;-79
2022/09/14 08:51:40;;;;;;;7.00;1.92;;;15.30;99.90;;;;;;4884188;28;38441;-80
2022/09/14 08:54:16;;;;;;;12.65;2.38;;;15.40;99.90;;;;;;4853050;29;49025;-81
2022/09/14 09:00:03;;;;;;;4.40;1.83;;;15.40;99.90;;;;;;5385177;23;20049;-81
2022/09/14 09:02:42;;;;;;;4.68;1.48;;;15.40;99.90;;;;;;4897603;29;49019;-80
2022/09/14 09:05:34;;;;;;;3.58;1.52;;;15.40;99.90;;;;;;4890218;29;38841;-81
2022/09/14 09:08:07;;;;;;;6.70;1.70;;;15.40;99.90;;;;;;4882659;29;39076;-80
2022/09/14 09:42:31;;;;;;;4.20;1.17;;;15.70;99.90;;;;;;5301474;23;20049;-80
2022/09/14 09:45:05;;;;;;;5.18;1.25;;;15.70;99.90;;;;;;4907096;29;38736;-81
2022/09/14 09:47:36;;;;;;;4.05;1.15;;;15.70;99.90;;;;;;4911782;28;47383;-80
2022/09/14 10:04:34;;;;;;;4.95;1.08;;;15.90;99.90;;;;;;5364071;23;20055;-80
2022/09/14 10:13:00;;;;;;;7.55;1.85;;;15.90;99.90;;;;;;5549099;23;20033;-81
2022/09/14 10:15:32;;;;;;;4.20;1.38;;;15.90;99.90;;;;;;5417202;23;36804;-82
2022/09/14 10:23:36;;;;;;;6.28;1.48;;;16.20;99.90;;;;;;5703209;23;20559;-83
2022/09/14 10:47:36;;;;;;;13.20;1.75;;;16.20;99.90;;;;;;5069804;23;20033;-81
2022/09/14 10:50:10;;;;;;;4.22;1.70;;;16.20;99.90;;;;;;4904925;29;49820;-81
2022/09/14 10:53:03;;;;;;;5.75;1.90;;;16.10;99.90;;;;;;4908139;29;40541;-82
2022/09/14 10:56:00;;;;;;;;;;;16.10;99.90;;;;;;5106531;23;47090;-82
2022/09/14 11:09:29;;;;;;;4.70;1.90;;;16.30;99.90;;;;;;5268364;23;20043;-80
2022/09/14 11:12:23;;;;;;;5.97;2.17;;;16.40;99.90;;;;;;4915151;23;48028;-80
2022/09/14 11:15:17;;;;;;;4.47;1.73;;;16.50;99.90;;;;;;5526718;23;49267;-81
2022/09/14 11:18:25;;;;;;;5.03;1.83;;;16.50;99.90;;;;;;4907328;29;50219;-81
2022/09/14 11:21:02;;;;;;;3.17;1.20;;;16.60;99.90;;;;;;4911312;29;49320;-80
2022/09/14 11:24:15;;;;;;;7.63;1.65;;;16.80;99.90;;;;;;4910710;29;38255;-80
2022/09/14 11:27:06;;;;;;;4.05;1.42;;;16.90;99.90;;;;;;4916990;29;48816;-80
2022/09/14 11:32:56;;;;;;;5.80;1.30;;;16.80;99.90;;;;;;4917659;23;20055;-81
2022/09/14 11:35:55;;;;;;;5.05;1.05;;;17.00;99.90;;;;;;4898243;29;40296;-80
2022/09/14 11:50:31;;;;;;;6.75;1.60;;;16.70;99.90;;;;;;5133380;23;20051;-83
2022/09/14 11:53:16;;;;;;;5.05;1.77;;;16.80;99.90;;;;;;4878071;29;48589;-82
2022/09/14 12:01:42;;;;;;;5.25;1.80;;;17.30;99.90;;;;;;5211600;23;20038;-80
2022/09/14 12:10:29;;;;;;;6.05;1.80;;;17.30;99.90;;;;;;5115540;23;20049;-82
2022/09/14 12:15:39;;;;;;;6.18;1.50;;;17.30;99.90;;;;;;5280500;23;20053;-82
2022/09/14 12:20:44;;;;;;;3.20;1.45;;;17.40;99.90;;;;;;5869056;23;20031;-78
2022/09/14 12:26:04;;;;;;;3.78;1.73;;;17.50;99.90;;;;;;5387393;23;20053;-81
2022/09/14 12:28:50;;;;;;;5.22;1.40;;;17.60;99.90;;;;;;4890501;29;48752;-80
2022/09/14 12:40:13;;;;;;;3.10;1.40;;;18.40;99.90;;;;;;5396287;23;20042;-81
2022/09/14 12:42:42;;;;;;;6.37;1.97;;;18.30;99.90;;;;;;4881824;29;41864;-81
2022/09/14 13:01:44;;;;;;;4.75;2.00;;;18.70;99.90;;;;;;4975443;23;20059;-80
2022/09/14 13:06:59;;;;;;;6.43;1.90;;;19.00;99.90;;;;;;5505298;23;20038;-81
2022/09/14 13:15:23;;;;;;;3.55;1.27;;;18.30;99.90;;;;;;5634486;23;20053;-79
2022/09/14 13:18:01;;;;;;;4.78;1.20;;;18.30;99.90;;;;;;4925307;29;39663;-80
2022/09/14 13:20:29;;;;;;;7.25;1.52;;;18.40;99.90;;;;;;4901715;29;47312;-79
2022/09/14 13:22:55;;;;;;;6.30;1.55;;;18.70;99.90;;;;;;4906060;29;37365;-79
2022/09/14 13:25:40;;;;;;;6.05;1.70;;;18.50;99.90;;;;;;4925966;29;39084;-79
2022/09/14 13:28:26;;;;;;;4.63;1.35;;;18.70;99.90;;;;;;4895331;29;38981;-80
2022/09/14 13:30:56;;;;;;;4.22;1.58;;;18.60;99.90;;;;;;4889859;29;38702;-80
2022/09/14 13:33:23;;;;;;;5.88;1.27;;;18.60;99.90;;;;;;4920937;29;38554;-80
2022/09/14 13:35:58;;;;;;;3.85;1.35;;;18.80;99.90;;;;;;4907210;29;38418;-79
2022/09/14 13:38:29;;;;;;;3.08;1.20;;;19.10;99.90;;;;;;4907433;29;39005;-79
2022/09/14 13:41:40;;;;;;;2.93;1.30;;;19.20;99.90;;;;;;4897219;29;37844;-81
2022/09/14 13:44:13;;;;;;;6.25;1.67;;;19.40;99.90;;;;;;4860899;28;47512;-80
2022/09/14 13:46:48;;;;;;;2.65;1.27;;;19.70;99.90;;;;;;4928543;28;40653;-80
2022/09/14 13:49:15;;;;;;;4.05;1.55;;;19.80;99.90;;;;;;4933762;28;39592;-79
2022/09/14 13:51:43;;;;;;;4.97;1.98;;;19.90;99.90;;;;;;4919926;29;39504;-80
2022/09/14 13:54:21;;;;;;;3.17;0.90;;;19.90;99.90;;;;;;4895249;29;37600;-79
2022/09/14 13:57:13;;;;;;;4.05;1.50;;;20.10;99.90;;;;;;4899652;29;37644;-79
2022/09/14 14:00:13;;;;;;;4.22;1.15;;;20.30;99.90;;;;;;4879751;29;47264;-80
2022/09/14 14:02:45;;;;;;;4.85;1.38;;;20.00;99.90;;;;;;4907402;29;47097;-80
2022/09/14 14:05:26;;;;;;;3.50;1.05;;;19.70;99.90;;;;;;4922758;29;36290;-80
2022/09/14 14:16:22;;;;;;;5.07;1.30;;;19.90;99.90;;;;;;5085806;23;20051;-80
2022/09/14 14:18:51;;;;;;;5.57;1.40;;;20.00;99.90;;;;;;5246144;23;48358;-81
2022/09/14 14:21:29;;;;;;;5.32;1.50;;;19.90;99.90;;;;;;4894016;29;38972;-81
2022/09/14 14:24:26;;;;;;;3.00;1.15;;;20.00;99.90;;;;;;4893599;29;38427;-81
2022/09/14 14:27:36;;;;;;;5.82;1.30;;;20.00;99.90;;;;;;4874755;29;48487;-81
2022/09/14 14:30:20;;;;;;;4.47;1.23;;;20.00;99.90;;;;;;5079942;23;48654;-79
2022/09/14 14:32:55;;;;;;;6.53;1.10;;;20.00;99.90;;;;;;4888147;29;37366;-80
2022/09/14 14:35:53;;;;;;;4.85;1.40;;;20.00;99.90;;;;;;4880435;29;36884;-80
2022/09/14 14:38:31;;;;;;;6.68;1.40;;;19.70;99.90;;;;;;4876025;29;38113;-80
2022/09/14 14:41:37;;;;;;;6.95;1.30;;;19.50;99.90;;;;;;4880599;29;38993;-81
2022/09/14 14:44:27;;;;;;;3.67;1.00;;;19.50;99.90;;;;;;4907692;29;20073;-81
2022/09/14 14:49:30;;;;;;;5.20;1.63;;;20.00;99.90;;;;;;5288943;23;20051;-79
2022/09/14 14:52:11;;;;;;;5.25;1.52;;;20.20;99.90;;;;;;4917879;29;39274;-81
2022/09/14 14:54:39;;;;;;;4.75;1.10;;;20.20;99.90;;;;;;4912502;29;47652;-81
2022/09/14 14:57:06;;;;;;;3.97;1.23;;;20.30;99.90;;;;;;4931126;29;39336;-80
2022/09/14 14:59:32;;;;;;;3.85;1.10;;;20.30;99.90;;;;;;4909248;29;37692;-80
2022/09/14 15:04:50;;;;;;;5.93;1.20;;;20.60;99.90;;;;;;4881229;29;20060;-79
2022/09/14 15:07:29;;;;;;;4.57;1.25;;;20.40;99.90;;;;;;4869772;29;36909;-79
2022/09/14 15:10:07;;;;;;;4.20;1.33;;;20.30;99.90;;;;;;4887643;29;37320;-78
2022/09/14 15:12:53;;;;;;;7.35;1.50;;;20.20;99.90;;;;;;4858410;29;49917;-81
2022/09/14 15:15:28;;;;;;;5.45;1.27;;;20.10;99.90;;;;;;4868196;29;38502;-81
2022/09/14 15:18:04;;;;;;;6.47;1.52;;;20.00;99.90;;;;;;4855790;29;38813;-81
2022/09/14 15:20:48;;;;;;;3.90;1.40;;;20.00;99.90;;;;;;4868753;29;50151;-80
2022/09/14 15:23:15;;;;;;;3.70;1.35;;;19.90;99.90;;;;;;4862825;29;40151;-81
2022/09/14 15:25:43;;;;;;;5.82;1.42;;;19.80;99.90;;;;;;4876335;29;39209;-81
2022/09/14 15:28:37;;;;;;;3.08;1.23;;;19.70;99.90;;;;;;4884956;29;39743;-81
2022/09/14 15:31:18;;;;;;;3.42;1.40;;;19.70;99.90;;;;;;4864899;29;37032;-80
2022/09/14 15:33:46;;;;;;;4.45;1.42;;;19.70;99.90;;;;;;4850844;29;39570;-80
2022/09/14 15:36:39;;;;;;;5.90;1.80;;;19.80;99.90;;;;;;4873138;29;39814;-80
2022/09/14 15:39:14;;;;;;;4.30;2.30;;;19.80;99.90;;;;;;4873717;29;38241;-80
2022/09/14 15:41:44;;;;;;;4.05;1.35;;;19.80;99.90;;;;;;4871869;29;36721;-81
2022/09/14 15:44:19;;;;;;;10.48;1.92;;;19.70;99.90;;;;;;4875393;29;40221;-80
2022/09/14 15:46:55;;;;;;;6.82;1.17;;;19.70;99.90;;;;;;4897439;29;39139;-80
2022/09/14 15:49:24;;;;;;;4.13;1.00;;;19.70;99.90;;;;;;4886894;29;38179;-80
2022/09/14 15:52:02;;;;;;;3.22;1.10;;;19.60;99.90;;;;;;4882125;29;37656;-80
2022/09/14 15:54:35;;;;;;;3.45;1.00;;;19.70;99.90;;;;;;4884789;29;48913;-80
2022/09/14 15:57:05;;;;;;;6.43;2.17;;;19.70;99.90;;;;;;4878989;29;38680;-80
2022/09/14 15:59:33;;;;;;;4.68;1.50;;;19.80;99.90;;;;;;4858589;29;37112;-80
2022/09/14 16:01:59;;;;;;;3.35;1.00;;;19.80;99.90;;;;;;4874403;29;36625;-80
2022/09/14 16:04:26;;;;;;;3.75;1.20;;;19.80;99.90;;;;;;4877236;29;37848;-80
2022/09/14 16:06:54;;;;;;;7.38;1.25;;;19.70;99.90;;;;;;4875091;29;37394;-80
2022/09/14 16:09:22;;;;;;;4.05;1.20;;;19.70;99.90;;;;;;4870447;29;39625;-80
2022/09/14 16:11:55;;;;;;;2.80;1.30;;;19.70;99.90;;;;;;4867794;29;37933;-81
2022/09/14 16:14:23;;;;;;;3.72;1.67;;;19.60;99.90;;;;;;4861066;29;41562;-81
2022/09/14 16:16:51;;;;;;;3.35;1.20;;;19.50;99.90;;;;;;4878261;29;38188;-80
2022/09/14 16:19:20;;;;;;;5.45;3.03;;;19.60;99.90;;;;;;4883405;29;38358;-80
2022/09/14 16:21:49;;;;;;;12.45;3.78;;;19.50;99.90;;;;;;4878789;29;38171;-80
2022/09/14 16:24:18;;;;;;;4.80;2.83;;;19.50;99.90;;;;;;4872587;29;38945;-81
2022/09/14 16:26:56;;;;;;;4.25;1.80;;;19.50;99.90;;;;;;4868878;29;37520;-80
2022/09/14 16:29:23;;;;;;;2.20;1.15;;;19.40;99.90;;;;;;4877098;29;37686;-80
2022/09/14 16:31:51;;;;;;;4.90;1.40;;;19.40;99.90;;;;;;4875998;29;37893;-80
2022/09/14 16:34:29;;;;;;;3.22;1.00;;;19.40;99.90;;;;;;4870433;29;37922;-81
2022/09/14 16:37:04;;;;;;;4.13;1.30;;;19.40;99.90;;;;;;4876604;29;38120;-80
2022/09/14 16:39:33;;;;;;;1.92;0.85;;;19.40;99.90;;;;;;4883870;29;47666;-80
2022/09/14 16:42:03;;;;;;;2.92;0.80;;;19.40;99.90;;;;;;4860421;29;38720;-81
2022/09/14 16:44:38;;;;;;;4.20;1.15;;;19.40;99.90;;;;;;4862163;29;47515;-81
2022/09/14 16:47:07;;;;;;;1.40;0.52;;;19.50;99.90;;;;;;4857969;29;37907;-80
2022/09/14 16:49:38;;;;;;;4.50;1.27;;;19.40;99.90;;;;;;4878505;29;38330;-80
2022/09/14 16:52:04;;;;;;;3.13;0.98;;;19.40;99.90;;;;;;4869536;29;36959;-80
2022/09/14 16:54:31;;;;;;;4.15;1.35;;;19.30;99.90;;;;;;4854173;29;37642;-81
2022/09/14 16:57:00;;;;;;;3.30;1.00;;;19.30;99.90;;;;;;4863543;29;38167;-81
2022/09/14 16:59:27;;;;;;;3.95;1.00;;;19.30;99.90;;;;;;4864663;29;37493;-80
2022/09/14 17:01:54;;;;;;;3.83;0.98;;;19.30;99.90;;;;;;4867162;29;36298;-81
2022/09/14 17:04:39;;;;;;;5.35;1.67;;;19.20;99.90;;;;;;4852112;29;38423;-81
2022/09/14 17:12:39;;;;;;;4.25;1.90;;;18.90;99.90;;;;;;5288808;23;20057;-80
2022/09/14 17:15:50;;;;;;;4.47;1.90;;;18.90;99.90;;;;;;4844095;29;40259;-80
2022/09/14 17:18:37;;;;;;;3.53;1.38;;;18.90;99.90;;;;;;4869701;29;39205;-81
2022/09/14 17:22:02;;;;;;;5.07;1.48;;;18.80;99.90;;;;;;4837703;29;38045;-80
2022/09/14 17:25:09;;;;;;;6.70;1.42;;;18.70;99.90;;;;;;4893219;29;37978;-80
2022/09/14 17:30:33;;;;;;;5.85;1.45;;;18.60;99.90;;;;;;5601722;23;20433;-79
2022/09/14 17:33:35;;;;;;;7.88;1.67;;;18.40;99.90;;;;;;4908547;28;38071;-79
2022/09/14 17:36:08;;;;;;;6.57;1.73;;;18.40;99.90;;;;;;4912398;28;48867;-79
2022/09/14 17:39:10;;;;;;;3.90;1.55;;;18.40;99.90;;;;;;4861179;29;50140;-80
2022/09/14 17:42:02;;;;;;;3.35;1.42;;;18.30;99.90;;;;;;4877337;29;47907;-81
2022/09/14 17:44:42;;;;;;;6.97;1.83;;;18.30;99.90;;;;;;4894367;29;49078;-80
2022/09/14 17:47:52;;;;;;;3.72;2.35;;;18.30;99.90;;;;;;4891385;29;36336;-79
2022/09/14 17:50:30;;;;;;;5.20;1.80;;;18.30;99.90;;;;;;4895685;29;39539;-80
2022/09/14 18:05:57;;;;;;;7.18;2.63;;;18.10;99.90;;;;;;5893933;23;20020;-80
2022/09/14 18:08:29;;;;;;;7.75;2.50;;;18.10;99.90;;;;;;4899669;29;35727;-80
2022/09/14 18:14:22;;;;;;;7.28;2.20;;;18.10;99.90;;;;;;4879439;29;50876;-80
2022/09/14 18:17:14;;;;;;;7.30;2.65;;;18.00;99.90;;;;;;4878669;29;50107;-79
2022/09/14 18:20:08;;;;;;;5.72;1.70;;;18.00;99.90;;;;;;4904038;29;50332;-80
2022/09/14 18:33:28;;;;;;;3.88;1.73;;;17.80;99.90;;;;;;5311545;23;20187;-81
2022/09/14 18:38:39;;;;;;;4.00;1.10;;;17.70;99.90;;;;;;5292519;23;20052;-80
2022/09/14 18:44:30;;;;;;;4.07;1.58;;;17.50;99.90;;;;;;5386481;23;20032;-80
2022/09/14 18:47:37;;;;;;;6.63;1.15;;;17.50;99.90;;;;;;4887634;28;48925;-81
2022/09/14 18:50:28;;;;;;;3.53;1.10;;;17.40;99.90;;;;;;4877320;29;48539;-82
2022/09/14 18:53:03;;;;;;;5.10;1.50;;;17.40;99.90;;;;;;4916020;28;38771;-81
2022/09/14 18:55:46;;;;;;;6.45;1.55;;;17.30;99.90;;;;;;4892417;29;49103;-82
2022/09/14 18:58:14;;;;;;;2.30;1.00;;;17.30;99.90;;;;;;4874498;29;39064;-80
2022/09/14 19:00:44;;;;;;;6.28;0.82;;;17.30;99.90;;;;;;4891406;29;38621;-80
2022/09/14 19:03:12;;;;;;;5.45;1.23;;;17.30;99.90;;;;;;4894178;29;37663;-81
2022/09/14 19:05:44;;;;;;;4.47;1.17;;;17.30;99.90;;;;;;4903349;28;40272;-80
2022/09/14 19:08:13;;;;;;;2.53;1.00;;;17.20;99.90;;;;;;4894655;29;38892;-81
2022/09/14 19:10:59;;;;;;;4.13;1.10;;;17.20;99.90;;;;;;4884334;29;38165;-80
2022/09/14 19:13:26;;;;;;;4.25;1.20;;;17.20;99.90;;;;;;4881375;29;37512;-81
2022/09/14 19:16:14;;;;;;;7.82;1.08;;;17.10;99.90;;;;;;4895209;29;39358;-80
2022/09/14 19:18:43;;;;;;;4.13;0.80;;;17.10;99.90;;;;;;4877801;29;49130;-81
2022/09/14 19:21:21;;;;;;;4.47;0.90;;;17.10;99.90;;;;;;4887079;29;38683;-80
2022/09/14 19:23:56;;;;;;;5.45;1.20;;;17.10;99.90;;;;;;4893257;29;40561;-80
2022/09/14 19:26:29;;;;;;;3.58;1.00;;;17.10;99.90;;;;;;4898898;29;40102;-79
2022/09/14 19:29:03;;;;;;;2.97;1.00;;;17.10;99.90;;;;;;4893458;29;38515;-80
2022/09/14 19:34:07;;;;;;;5.03;1.00;;;17.00;99.90;;;;;;5218509;23;20060;-80
2022/09/14 19:36:37;;;;;;;5.78;1.20;;;17.00;99.90;;;;;;4875695;29;36530;-80
2022/09/14 19:39:04;;;;;;;3.15;0.90;;;16.90;99.90;;;;;;4882028;29;37369;-80
2022/09/14 19:42:05;;;;;;;3.72;0.90;;;16.90;99.90;;;;;;4885423;29;37985;-80
2022/09/14 19:44:32;;;;;;;3.33;1.00;;;16.90;99.90;;;;;;4885302;29;49151;-80
2022/09/14 19:46:59;;;;;;;3.92;1.15;;;16.80;99.90;;;;;;4902361;29;39931;-80
2022/09/14 19:49:27;;;;;;;3.38;1.30;;;16.80;99.90;;;;;;4892511;29;38837;-79
2022/09/14 19:52:02;;;;;;;2.72;1.25;;;16.80;99.90;;;;;;4882895;29;39874;-80
2022/09/14 19:54:37;;;;;;;5.95;1.40;;;16.70;99.90;;;;;;4896926;29;48424;-80
2022/09/14 19:57:07;;;;;;;3.13;1.23;;;16.80;99.90;;;;;;4910012;29;40243;-80
2022/09/14 19:59:35;;;;;;;2.97;1.10;;;16.70;99.90;;;;;;4878614;29;38772;-80
2022/09/14 20:02:05;;;;;;;3.63;1.13;;;16.70;99.90;;;;;;4879029;29;38558;-80